Time;durP1;ratioP1;P1;durP2;ratioP2;P2;SDS_P1;SDS_P2;PMS_P1;PMS_P2;Temp;Humidity;BMP_temperature;BMP_pressure;BME280_temperature;BME280_humidity;BME280_pressure;Samples;Min_cycle;Max_cycle;Signal;HPM_P1;HPM_P2
2022/10/22 00:01:56;;;;;;;0.60;0.25;;;12.20;99.90;;;;;;5042860;28;20021;-82
2022/10/22 00:04:21;;;;;;;2.65;0.30;;;12.20;99.90;;;;;;5045129;28;20033;-78
2022/10/22 00:06:47;;;;;;;1.05;0.40;;;12.20;99.90;;;;;;5046921;28;20032;-78
2022/10/22 00:09:14;;;;;;;1.80;0.40;;;12.20;99.90;;;;;;5047116;28;20060;-77
2022/10/22 00:11:40;;;;;;;1.00;0.40;;;12.10;99.90;;;;;;5054986;28;20098;-78
2022/10/22 00:14:06;;;;;;;0.70;0.38;;;12.10;99.90;;;;;;5046676;28;20432;-77
2022/10/22 00:16:31;;;;;;;1.05;0.40;;;12.10;99.90;;;;;;5047215;28;20025;-77
2022/10/22 00:18:57;;;;;;;1.60;0.40;;;12.00;99.90;;;;;;5044326;28;20024;-77
2022/10/22 00:21:23;;;;;;;2.17;0.40;;;12.10;99.90;;;;;;5025741;28;20068;-78
2022/10/22 00:23:48;;;;;;;1.33;0.50;;;12.10;99.90;;;;;;5046877;28;20449;-83
2022/10/22 00:26:14;;;;;;;0.82;0.40;;;12.10;99.90;;;;;;5046495;28;20125;-81
2022/10/22 00:28:40;;;;;;;1.00;0.40;;;12.00;99.90;;;;;;5059135;28;20055;-78
2022/10/22 00:31:06;;;;;;;1.58;0.50;;;12.10;99.90;;;;;;5041638;28;20049;-78
2022/10/22 00:33:32;;;;;;;1.15;0.50;;;12.20;99.90;;;;;;5044104;28;20072;-78
2022/10/22 00:35:57;;;;;;;1.85;0.60;;;12.10;99.90;;;;;;5044632;28;20033;-78
2022/10/22 00:38:23;;;;;;;0.90;0.38;;;12.20;99.90;;;;;;5052987;28;20265;-78
2022/10/22 00:40:49;;;;;;;1.23;0.40;;;12.20;99.90;;;;;;5026109;28;20033;-78
2022/10/22 00:43:17;;;;;;;2.63;0.40;;;12.20;99.90;;;;;;5042972;28;20049;-82
2022/10/22 00:45:43;;;;;;;2.00;0.45;;;12.10;99.90;;;;;;5024612;28;20572;-79
2022/10/22 00:48:16;;;;;;;2.33;0.55;;;12.10;99.90;;;;;;5040311;28;20033;-78
2022/10/22 00:50:55;;;;;;;1.55;0.50;;;12.20;99.90;;;;;;5023919;28;20037;-78
2022/10/22 00:53:44;;;;;;;1.83;0.55;;;12.20;99.90;;;;;;5042872;28;20024;-78
2022/10/22 00:56:10;;;;;;;1.65;0.45;;;12.10;99.90;;;;;;5041864;28;20559;-78
2022/10/22 00:58:42;;;;;;;1.10;0.45;;;12.10;99.90;;;;;;5042460;28;20079;-78
2022/10/22 01:01:15;;;;;;;1.20;0.50;;;12.10;99.90;;;;;;5029521;28;20044;-78
2022/10/22 01:03:41;;;;;;;1.67;0.50;;;12.00;99.90;;;;;;5024325;28;20115;-78
2022/10/22 01:06:06;;;;;;;2.72;0.65;;;12.10;99.90;;;;;;5045051;28;20484;-78
2022/10/22 01:08:44;;;;;;;1.90;0.70;;;12.10;99.90;;;;;;5045905;28;20056;-80
2022/10/22 01:11:31;;;;;;;1.30;0.50;;;12.00;99.90;;;;;;5024961;28;20041;-78
2022/10/22 01:14:17;;;;;;;1.33;0.52;;;12.10;99.90;;;;;;5041442;28;20534;-78
2022/10/22 01:16:47;;;;;;;1.20;0.50;;;12.00;99.90;;;;;;5025694;28;20037;-78
2022/10/22 01:19:38;;;;;;;1.42;0.50;;;12.10;99.90;;;;;;5038405;28;20451;-77
2022/10/22 01:22:27;;;;;;;1.70;0.50;;;12.00;99.90;;;;;;5041465;28;20076;-78
2022/10/22 01:25:15;;;;;;;1.33;0.50;;;12.00;99.90;;;;;;5042807;28;20033;-78
2022/10/22 01:28:19;;;;;;;1.95;0.40;;;12.10;99.90;;;;;;5024818;28;20037;-78
2022/10/22 01:30:46;;;;;;;1.20;0.50;;;12.00;99.90;;;;;;5042529;28;20033;-77
2022/10/22 01:33:15;;;;;;;1.77;0.55;;;12.00;99.90;;;;;;5042211;28;20040;-78
2022/10/22 01:35:43;;;;;;;1.73;0.60;;;11.90;99.90;;;;;;5040810;28;20285;-78
2022/10/22 01:38:17;;;;;;;1.67;0.60;;;11.90;99.90;;;;;;5039361;28;20474;-82
2022/10/22 01:40:44;;;;;;;1.10;0.50;;;11.80;99.90;;;;;;5041218;28;20441;-77
2022/10/22 01:43:10;;;;;;;1.88;0.50;;;11.80;99.90;;;;;;5040471;28;20432;-78
2022/10/22 01:45:53;;;;;;;1.30;0.50;;;11.90;99.90;;;;;;5045252;28;20041;-78
2022/10/22 01:48:39;;;;;;;1.85;0.73;;;11.80;99.90;;;;;;5038642;28;20025;-77
2022/10/22 01:51:15;;;;;;;2.72;0.50;;;11.80;99.90;;;;;;5057921;28;20033;-80
2022/10/22 01:53:54;;;;;;;1.40;0.50;;;11.90;99.90;;;;;;5039340;28;20152;-78
2022/10/22 01:56:46;;;;;;;2.00;0.52;;;11.80;99.90;;;;;;5041383;28;20040;-78
2022/10/22 01:59:33;;;;;;;1.55;0.80;;;11.80;99.90;;;;;;5013405;28;20508;-78
2022/10/22 02:02:32;;;;;;;1.30;0.50;;;11.80;99.90;;;;;;5024705;28;20025;-82
2022/10/22 02:05:06;;;;;;;2.03;0.60;;;11.80;99.90;;;;;;5042051;28;20033;-78
2022/10/22 02:07:39;;;;;;;1.30;0.50;;;11.60;99.90;;;;;;5034499;28;20026;-79
2022/10/22 02:10:06;;;;;;;1.90;0.60;;;11.70;99.90;;;;;;5028138;28;20064;-78
2022/10/22 02:12:33;;;;;;;1.98;0.60;;;11.60;99.90;;;;;;5026302;28;20065;-78
2022/10/22 02:15:02;;;;;;;1.98;0.65;;;11.70;99.90;;;;;;5046880;28;20052;-78
2022/10/22 02:17:30;;;;;;;1.90;0.65;;;11.70;99.90;;;;;;5045799;28;20546;-79
2022/10/22 02:20:11;;;;;;;2.65;0.60;;;11.70;99.90;;;;;;5044386;28;20032;-77
2022/10/22 02:22:38;;;;;;;1.27;0.55;;;11.70;99.90;;;;;;5047225;28;20025;-78
2022/10/22 02:25:05;;;;;;;1.70;0.60;;;11.60;99.90;;;;;;5029951;28;20120;-79
2022/10/22 02:27:45;;;;;;;3.40;0.50;;;11.60;99.90;;;;;;5039420;28;20048;-77
2022/10/22 02:30:15;;;;;;;2.25;0.57;;;11.60;99.90;;;;;;5047399;28;20044;-80
2022/10/22 02:32:52;;;;;;;1.58;0.50;;;11.60;99.90;;;;;;5048619;28;20099;-77
2022/10/22 02:35:22;;;;;;;1.98;0.60;;;11.70;99.90;;;;;;5045259;28;20025;-79
2022/10/22 02:37:48;;;;;;;2.40;0.60;;;11.70;99.90;;;;;;5048271;28;20040;-79
2022/10/22 02:40:14;;;;;;;1.02;0.50;;;11.70;99.90;;;;;;5046507;28;20108;-79
2022/10/22 02:42:42;;;;;;;1.90;0.60;;;11.70;99.90;;;;;;5056363;28;20032;-78
2022/10/22 02:45:08;;;;;;;3.33;0.70;;;11.70;99.90;;;;;;5037502;28;20135;-78
2022/10/22 02:47:33;;;;;;;2.35;0.70;;;11.60;99.90;;;;;;5046371;28;20029;-78
2022/10/22 02:49:59;;;;;;;2.10;0.73;;;11.60;99.90;;;;;;5054814;28;20025;-77
2022/10/22 02:52:24;;;;;;;1.67;0.52;;;11.50;99.90;;;;;;5044166;28;20026;-79
2022/10/22 02:54:50;;;;;;;2.60;0.50;;;11.60;99.90;;;;;;5045792;28;20025;-78
2022/10/22 02:57:16;;;;;;;1.40;0.85;;;11.60;99.90;;;;;;5044845;28;20021;-78
2022/10/22 02:59:41;;;;;;;8.13;1.77;;;11.50;99.90;;;;;;5045170;28;20668;-77
2022/10/22 03:02:07;;;;;;;2.85;0.60;;;11.60;99.90;;;;;;5044319;28;20397;-78
2022/10/22 03:04:33;;;;;;;2.60;0.70;;;11.60;99.90;;;;;;5045504;28;20039;-77
2022/10/22 03:06:59;;;;;;;2.15;0.70;;;11.50;99.90;;;;;;5027631;28;20463;-79
2022/10/22 03:09:25;;;;;;;1.92;0.70;;;11.50;99.90;;;;;;5046484;28;20448;-79
2022/10/22 03:11:51;;;;;;;1.48;0.60;;;11.60;99.90;;;;;;5048681;28;20070;-82
2022/10/22 03:14:17;;;;;;;2.40;0.60;;;11.60;99.90;;;;;;5042558;28;20029;-81
2022/10/22 03:16:42;;;;;;;1.65;0.70;;;11.50;99.90;;;;;;5043012;28;20052;-78
2022/10/22 03:19:08;;;;;;;2.03;1.10;;;11.50;99.90;;;;;;5042265;28;20393;-78
2022/10/22 03:21:42;;;;;;;3.40;0.57;;;11.60;99.90;;;;;;5042429;28;20089;-78
2022/10/22 03:24:16;;;;;;;1.52;0.70;;;11.60;99.90;;;;;;5025787;28;20032;-77
2022/10/22 03:26:44;;;;;;;1.83;0.80;;;11.60;99.90;;;;;;5028865;28;20100;-79
2022/10/22 03:29:11;;;;;;;2.97;0.65;;;11.70;99.90;;;;;;5042428;28;20040;-77
2022/10/22 03:31:37;;;;;;;2.58;0.60;;;11.80;99.90;;;;;;5046824;28;20040;-78
2022/10/22 03:34:02;;;;;;;1.90;0.60;;;11.80;99.90;;;;;;5043044;28;20037;-77
2022/10/22 03:36:28;;;;;;;3.00;0.60;;;11.90;99.90;;;;;;5043730;28;20060;-78
2022/10/22 03:38:54;;;;;;;3.05;0.60;;;11.80;99.90;;;;;;5054613;28;20508;-78
2022/10/22 03:41:19;;;;;;;1.98;0.70;;;11.90;99.90;;;;;;5046551;28;20100;-81
2022/10/22 03:43:48;;;;;;;1.52;0.60;;;11.90;99.90;;;;;;5046747;28;20465;-78
2022/10/22 03:46:14;;;;;;;2.90;0.63;;;11.90;99.90;;;;;;5008226;28;20044;-78
2022/10/22 03:48:40;;;;;;;3.67;1.00;;;11.90;99.90;;;;;;5018881;28;20033;-81
2022/10/22 03:51:06;;;;;;;2.60;0.90;;;11.90;99.90;;;;;;5042471;28;20033;-77
2022/10/22 03:53:32;;;;;;;1.75;0.65;;;11.90;99.90;;;;;;5026381;28;20029;-78
2022/10/22 03:55:57;;;;;;;1.70;0.60;;;12.00;99.90;;;;;;5042238;28;20067;-80
2022/10/22 03:58:23;;;;;;;1.30;0.90;;;11.90;99.90;;;;;;5030665;28;20025;-78
2022/10/22 04:00:49;;;;;;;1.48;0.60;;;11.90;99.90;;;;;;5027229;28;20033;-81
2022/10/22 04:03:14;;;;;;;1.70;0.88;;;11.90;99.90;;;;;;5029576;28;20488;-77
2022/10/22 04:05:40;;;;;;;3.22;0.75;;;11.90;99.90;;;;;;5027539;28;20029;-78
2022/10/22 04:08:05;;;;;;;2.50;0.60;;;11.90;99.90;;;;;;5013239;28;20025;-78
2022/10/22 04:10:31;;;;;;;3.70;0.70;;;11.80;99.90;;;;;;5024293;28;20080;-78
2022/10/22 04:12:57;;;;;;;1.70;0.65;;;11.80;99.90;;;;;;5027366;28;20230;-77
2022/10/22 04:15:25;;;;;;;1.63;0.50;;;11.70;99.90;;;;;;5041262;28;20037;-82
2022/10/22 04:17:51;;;;;;;1.67;0.50;;;11.80;99.90;;;;;;5044172;28;20032;-78
2022/10/22 04:20:17;;;;;;;1.23;0.50;;;11.70;99.90;;;;;;5041826;28;20104;-78
2022/10/22 04:22:42;;;;;;;1.13;0.57;;;11.70;99.90;;;;;;5010863;28;20029;-78
2022/10/22 04:25:08;;;;;;;2.20;0.50;;;11.70;99.90;;;;;;5024991;28;20091;-78
2022/10/22 04:27:34;;;;;;;1.15;0.47;;;11.70;99.90;;;;;;5026213;28;20032;-78
2022/10/22 04:30:00;;;;;;;2.20;0.60;;;11.70;99.90;;;;;;5025874;28;20041;-78
2022/10/22 04:32:26;;;;;;;1.52;0.60;;;11.60;99.90;;;;;;5023389;28;20025;-80
2022/10/22 04:34:52;;;;;;;1.50;0.68;;;11.60;99.90;;;;;;5042894;28;20060;-82
2022/10/22 04:37:18;;;;;;;1.30;0.65;;;11.70;99.90;;;;;;5042530;28;20489;-81
2022/10/22 04:39:43;;;;;;;1.42;0.70;;;11.60;99.90;;;;;;5043952;28;20082;-82
2022/10/22 04:42:10;;;;;;;1.40;0.60;;;11.60;99.90;;;;;;5044839;28;20059;-78
2022/10/22 04:44:35;;;;;;;2.05;0.70;;;11.60;99.90;;;;;;5026762;28;20390;-78
2022/10/22 04:47:01;;;;;;;2.05;0.70;;;11.60;99.90;;;;;;5028897;28;20036;-78
2022/10/22 04:49:27;;;;;;;1.67;0.60;;;11.50;99.90;;;;;;5043102;28;20040;-78
2022/10/22 04:51:52;;;;;;;2.03;0.60;;;11.50;99.90;;;;;;5043558;28;20081;-78
2022/10/22 04:54:18;;;;;;;1.50;0.65;;;11.40;99.90;;;;;;5028614;28;20078;-77
2022/10/22 04:56:44;;;;;;;1.80;0.60;;;11.50;99.90;;;;;;5023315;28;20044;-77
2022/10/22 04:59:11;;;;;;;2.63;0.60;;;11.50;99.90;;;;;;5045814;28;20032;-78
2022/10/22 05:01:43;;;;;;;1.90;0.57;;;11.50;99.90;;;;;;5045991;28;20025;-77
2022/10/22 05:04:15;;;;;;;1.63;0.68;;;11.40;99.90;;;;;;5039959;28;20960;-78
2022/10/22 05:06:41;;;;;;;2.97;0.60;;;11.40;99.90;;;;;;5045286;28;20164;-77
2022/10/22 05:09:11;;;;;;;1.60;0.60;;;11.50;99.90;;;;;;5045059;28;20045;-78
2022/10/22 05:11:44;;;;;;;2.50;0.50;;;11.50;99.90;;;;;;5041227;28;20037;-79
2022/10/22 05:14:10;;;;;;;2.00;0.40;;;11.60;99.90;;;;;;5026634;28;20428;-78
2022/10/22 05:16:37;;;;;;;2.13;0.50;;;11.60;99.90;;;;;;5044086;28;20024;-77
2022/10/22 05:19:03;;;;;;;1.52;0.50;;;11.50;99.90;;;;;;5046045;28;20040;-82
2022/10/22 05:21:29;;;;;;;1.33;0.50;;;11.70;99.90;;;;;;5040925;28;20030;-82
2022/10/22 05:23:58;;;;;;;1.63;0.47;;;11.70;99.90;;;;;;5041050;28;20021;-77
2022/10/22 05:26:25;;;;;;;1.63;0.40;;;11.80;99.90;;;;;;5042719;28;20067;-77
2022/10/22 05:28:51;;;;;;;2.42;0.50;;;11.70;99.90;;;;;;5043380;28;20041;-78
2022/10/22 05:31:17;;;;;;;4.00;0.80;;;11.80;99.90;;;;;;5027493;28;20025;-78
2022/10/22 05:33:44;;;;;;;3.45;0.60;;;11.80;99.90;;;;;;5044284;28;20484;-83
2022/10/22 05:36:13;;;;;;;2.17;0.60;;;11.90;99.90;;;;;;5040913;28;20086;-77
2022/10/22 05:38:38;;;;;;;3.45;0.60;;;11.80;99.90;;;;;;5041066;28;20025;-77
2022/10/22 05:41:19;;;;;;;1.42;0.52;;;12.00;99.90;;;;;;5036213;28;20025;-78
2022/10/22 05:43:46;;;;;;;2.53;0.50;;;12.00;99.90;;;;;;5026759;28;20021;-83
2022/10/22 05:46:17;;;;;;;1.23;0.40;;;12.00;99.90;;;;;;5067692;28;20504;-77
2022/10/22 05:48:43;;;;;;;1.80;0.52;;;12.10;99.90;;;;;;5072166;28;20044;-83
2022/10/22 05:51:11;;;;;;;3.42;0.50;;;12.00;99.90;;;;;;5072662;28;20036;-77
2022/10/22 05:53:39;;;;;;;2.15;0.50;;;12.10;99.90;;;;;;5052492;28;20028;-80
2022/10/22 05:56:13;;;;;;;3.13;0.73;;;12.10;99.90;;;;;;5087128;28;20025;-78
2022/10/22 05:58:40;;;;;;;3.22;0.50;;;12.10;99.90;;;;;;5071120;28;20085;-78
2022/10/22 06:01:11;;;;;;;1.20;0.50;;;12.10;99.90;;;;;;5068418;28;20032;-77
2022/10/22 06:03:37;;;;;;;2.03;0.50;;;12.10;99.90;;;;;;5063725;28;20048;-78
2022/10/22 06:06:13;;;;;;;2.28;0.50;;;12.10;99.90;;;;;;5068731;28;20079;-77
2022/10/22 06:08:39;;;;;;;1.85;0.50;;;12.10;99.90;;;;;;5087374;28;20075;-77
2022/10/22 06:11:04;;;;;;;1.15;0.50;;;12.10;99.90;;;;;;5052876;28;20048;-78
2022/10/22 06:13:31;;;;;;;1.60;0.50;;;12.10;99.90;;;;;;5087414;28;20023;-77
2022/10/22 06:15:57;;;;;;;1.40;0.50;;;12.10;99.90;;;;;;5066534;28;20033;-78
2022/10/22 06:18:23;;;;;;;1.58;0.60;;;12.10;99.90;;;;;;5070824;28;20487;-82
2022/10/22 06:20:49;;;;;;;2.08;0.80;;;12.00;99.90;;;;;;5085330;28;20039;-78
2022/10/22 06:23:15;;;;;;;3.67;0.60;;;12.10;99.90;;;;;;5070771;28;20044;-78
2022/10/22 06:25:42;;;;;;;3.40;0.60;;;12.10;99.90;;;;;;5063192;28;20048;-78
2022/10/22 06:28:08;;;;;;;4.03;0.70;;;12.10;99.90;;;;;;5070588;28;20032;-77
2022/10/22 06:30:37;;;;;;;2.28;0.50;;;12.10;99.90;;;;;;5069555;28;20515;-78
2022/10/22 06:33:03;;;;;;;1.60;0.50;;;12.10;99.90;;;;;;5067298;28;20028;-77
2022/10/22 06:35:29;;;;;;;3.25;0.80;;;12.20;99.90;;;;;;5051171;28;20105;-77
2022/10/22 06:37:55;;;;;;;1.95;0.68;;;12.40;99.90;;;;;;5051045;28;20079;-78
2022/10/22 06:40:22;;;;;;;1.92;0.63;;;12.40;99.90;;;;;;5064880;28;20028;-78
2022/10/22 06:42:48;;;;;;;2.72;1.10;;;12.40;99.90;;;;;;5070804;28;20459;-78
2022/10/22 06:45:14;;;;;;;1.95;0.60;;;12.60;99.90;;;;;;5084241;28;20067;-77
2022/10/22 06:47:40;;;;;;;3.25;1.17;;;12.60;99.90;;;;;;5086437;28;20016;-82
2022/10/22 06:50:06;;;;;;;2.85;1.65;;;12.60;99.90;;;;;;5084198;28;20028;-78
2022/10/22 06:52:32;;;;;;;3.45;0.85;;;12.70;99.90;;;;;;5050793;28;20020;-78
2022/10/22 06:54:58;;;;;;;3.42;1.00;;;12.80;99.90;;;;;;5067156;28;20073;-82
2022/10/22 06:57:24;;;;;;;2.70;0.68;;;12.80;99.90;;;;;;5065078;28;20089;-78
2022/10/22 06:59:50;;;;;;;3.55;0.85;;;12.80;99.90;;;;;;5062025;28;20473;-83
2022/10/22 07:02:15;;;;;;;2.63;0.60;;;12.90;99.90;;;;;;5084624;28;20107;-81
2022/10/22 07:04:41;;;;;;;2.50;0.60;;;12.90;99.90;;;;;;5085832;28;20154;-78
2022/10/22 07:07:07;;;;;;;2.40;0.70;;;12.90;99.90;;;;;;5059803;28;20137;-78
2022/10/22 07:09:33;;;;;;;3.30;0.68;;;12.90;99.90;;;;;;5051462;28;20054;-78
2022/10/22 07:11:58;;;;;;;3.85;0.80;;;12.90;99.90;;;;;;5068766;28;20055;-81
2022/10/22 07:14:24;;;;;;;3.13;0.90;;;12.90;99.90;;;;;;5069506;28;20032;-79
2022/10/22 07:16:49;;;;;;;2.33;0.80;;;12.90;99.90;;;;;;5050814;28;20046;-78
2022/10/22 07:19:15;;;;;;;1.80;0.60;;;12.90;99.90;;;;;;5084607;28;20111;-80
2022/10/22 07:21:41;;;;;;;2.58;0.70;;;12.80;99.90;;;;;;5068368;28;20024;-78
2022/10/22 07:24:07;;;;;;;2.80;0.88;;;12.90;99.90;;;;;;5070144;28;20032;-82
2022/10/22 07:26:33;;;;;;;3.65;0.80;;;12.90;99.90;;;;;;5053396;28;20047;-77
2022/10/22 07:28:59;;;;;;;2.10;0.50;;;13.00;99.90;;;;;;5066279;28;20487;-79
2022/10/22 07:31:25;;;;;;;3.10;0.80;;;13.00;99.90;;;;;;5083596;28;20056;-78
2022/10/22 07:33:51;;;;;;;1.92;0.75;;;13.10;99.90;;;;;;5067196;28;20020;-78
2022/10/22 07:36:16;;;;;;;3.17;1.15;;;13.10;99.90;;;;;;5083753;28;20051;-78
2022/10/22 07:38:44;;;;;;;2.78;0.80;;;13.20;99.90;;;;;;5059490;28;20074;-82
2022/10/22 07:41:10;;;;;;;2.53;1.02;;;13.30;99.90;;;;;;5068602;28;20484;-79
2022/10/22 07:43:36;;;;;;;2.67;0.80;;;13.40;99.90;;;;;;5070273;28;20052;-78
2022/10/22 07:46:02;;;;;;;2.92;0.90;;;13.40;99.90;;;;;;5058349;28;20047;-80
2022/10/22 07:48:28;;;;;;;2.75;1.15;;;13.50;99.90;;;;;;5066479;28;20031;-78
2022/10/22 07:50:54;;;;;;;3.45;0.70;;;13.60;99.90;;;;;;5070681;28;20028;-82
2022/10/22 07:53:20;;;;;;;3.13;0.60;;;13.60;99.90;;;;;;5068471;28;20101;-78
2022/10/22 07:55:49;;;;;;;2.63;0.70;;;13.70;99.90;;;;;;5083388;28;20066;-81
2022/10/22 07:58:17;;;;;;;2.85;0.73;;;13.70;99.90;;;;;;5081858;28;20028;-78
2022/10/22 08:00:43;;;;;;;3.15;0.70;;;13.80;99.90;;;;;;5078217;28;20443;-79
2022/10/22 08:03:11;;;;;;;2.80;0.60;;;13.80;99.90;;;;;;5078744;28;20464;-77
2022/10/22 08:05:38;;;;;;;3.17;0.57;;;13.90;99.90;;;;;;5079267;28;20066;-78
2022/10/22 08:08:05;;;;;;;3.65;1.02;;;14.00;99.90;;;;;;5060480;28;20024;-79
2022/10/22 08:10:31;;;;;;;3.05;0.68;;;14.00;99.90;;;;;;5073760;28;20037;-78
2022/10/22 08:12:57;;;;;;;2.13;0.65;;;14.10;99.90;;;;;;5055323;28;20533;-79
2022/10/22 08:15:24;;;;;;;3.28;0.60;;;14.20;99.90;;;;;;5057203;28;20036;-80
2022/10/22 08:17:50;;;;;;;3.80;0.73;;;14.20;99.90;;;;;;5058657;28;20032;-78
2022/10/22 08:20:16;;;;;;;1.92;0.50;;;14.20;99.90;;;;;;5076869;28;20533;-82
2022/10/22 08:22:42;;;;;;;1.98;0.50;;;14.20;99.90;;;;;;5042393;28;20029;-77
2022/10/22 08:25:08;;;;;;;1.63;0.50;;;14.20;99.90;;;;;;5040883;28;20134;-78
2022/10/22 08:27:34;;;;;;;2.05;0.50;;;14.30;99.90;;;;;;5074771;28;20028;-78
2022/10/22 08:30:00;;;;;;;3.95;0.60;;;14.40;99.90;;;;;;5040708;28;20498;-79
2022/10/22 08:32:26;;;;;;;4.35;0.60;;;14.40;99.90;;;;;;5047512;28;20016;-79
2022/10/22 08:34:52;;;;;;;3.30;0.60;;;14.50;99.90;;;;;;5076623;28;20395;-79
2022/10/22 08:37:17;;;;;;;4.75;0.50;;;14.50;99.90;;;;;;5060113;28;20039;-79
2022/10/22 08:39:43;;;;;;;4.13;0.55;;;14.60;99.90;;;;;;5077350;28;20342;-78
2022/10/22 08:42:57;;;;;;;2.97;0.50;;;14.70;99.90;;;;;;5066407;28;20058;-78
2022/10/22 08:45:32;;;;;;;2.50;0.93;;;14.70;99.90;;;;;;5048077;28;20393;-78
2022/10/22 08:48:32;;;;;;;1.38;0.40;;;14.90;99.90;;;;;;5039470;28;20028;-78
2022/10/22 08:50:58;;;;;;;2.15;0.45;;;14.90;99.90;;;;;;5059535;28;20043;-79
2022/10/22 08:53:50;;;;;;;2.08;0.50;;;15.30;99.90;;;;;;5073134;28;20589;-79
2022/10/22 08:56:15;;;;;;;3.65;0.40;;;15.50;99.90;;;;;;4998964;28;20038;-78
2022/10/22 08:58:54;;;;;;;3.15;0.50;;;15.50;99.90;;;;;;4998900;28;20088;-78
2022/10/22 09:01:44;;;;;;;4.72;0.60;;;15.60;99.90;;;;;;4997306;28;20092;-78
2022/10/22 09:04:25;;;;;;;4.70;0.50;;;15.50;99.90;;;;;;4976392;28;20042;-78
2022/10/22 09:06:54;;;;;;;3.70;0.47;;;15.60;99.90;;;;;;4981760;28;20129;-79
2022/10/22 09:09:20;;;;;;;2.97;0.50;;;15.80;99.90;;;;;;4982622;28;20108;-82
2022/10/22 09:11:50;;;;;;;3.28;0.60;;;15.90;99.90;;;;;;4968068;28;20056;-78
2022/10/22 09:14:20;;;;;;;3.58;0.50;;;15.90;99.90;;;;;;4999552;28;20430;-78
2022/10/22 09:17:25;;;;;;;7.38;0.90;;;15.80;99.90;;;;;;4983143;28;20117;-79
2022/10/22 09:20:14;;;;;;;2.97;0.82;;;15.80;99.90;;;;;;4977823;28;20041;-78
2022/10/22 09:23:09;;;;;;;4.53;0.68;;;15.80;99.90;;;;;;4998205;28;21807;-78
2022/10/22 09:25:36;;;;;;;1.98;0.40;;;15.80;99.90;;;;;;4972822;28;20088;-80
2022/10/22 09:28:02;;;;;;;3.78;0.40;;;15.80;99.90;;;;;;4957927;28;20030;-76
2022/10/22 09:30:34;;;;;;;4.03;0.40;;;15.70;99.90;;;;;;4946189;28;20596;-77
2022/10/22 09:33:06;;;;;;;2.47;0.30;;;15.70;99.90;;;;;;4998840;28;20505;-75
2022/10/22 09:36:02;;;;;;;3.10;0.50;;;15.70;99.90;;;;;;5057722;28;20043;-76
2022/10/22 09:38:39;;;;;;;4.82;0.50;;;15.90;99.90;;;;;;5057152;28;20093;-76
2022/10/22 09:41:05;;;;;;;4.00;0.50;;;15.90;99.90;;;;;;5043847;28;20036;-77
2022/10/22 09:43:31;;;;;;;7.00;0.63;;;16.10;99.90;;;;;;5025595;28;20070;-76
2022/10/22 09:45:59;;;;;;;3.85;0.50;;;16.10;99.90;;;;;;5028749;28;20117;-77
2022/10/22 09:48:33;;;;;;;4.88;0.40;;;16.20;99.90;;;;;;5053505;28;20047;-77
2022/10/22 09:51:04;;;;;;;4.80;0.70;;;16.00;99.90;;;;;;5025123;28;20383;-78
2022/10/22 09:53:35;;;;;;;3.20;0.40;;;16.00;99.90;;;;;;5012792;28;20133;-76
2022/10/22 09:56:07;;;;;;;3.33;0.40;;;15.90;99.90;;;;;;5033041;28;20141;-79
2022/10/22 09:58:42;;;;;;;5.18;0.88;;;15.80;99.90;;;;;;5073519;28;20036;-76
2022/10/22 10:01:17;;;;;;;3.67;0.43;;;15.70;99.90;;;;;;5074727;28;20060;-81
2022/10/22 10:03:43;;;;;;;5.82;0.82;;;15.70;99.90;;;;;;5073886;28;20148;-80
2022/10/22 10:06:08;;;;;;;4.05;0.50;;;15.60;99.90;;;;;;5073800;28;20025;-82
2022/10/22 10:08:34;;;;;;;3.65;0.60;;;15.60;99.90;;;;;;5060493;28;20037;-75
2022/10/22 10:11:37;;;;;;;2.58;0.50;;;15.50;99.90;;;;;;5063826;28;20020;-76
2022/10/22 10:14:14;;;;;;;2.88;0.30;;;15.50;99.90;;;;;;5075754;28;20401;-75
2022/10/22 10:16:55;;;;;;;3.35;0.40;;;15.50;99.90;;;;;;5054906;28;20067;-75
2022/10/22 10:19:39;;;;;;;2.42;0.30;;;15.50;99.90;;;;;;5072534;28;20017;-75
2022/10/22 10:22:26;;;;;;;3.45;0.30;;;15.50;99.90;;;;;;5074913;28;20031;-75
2022/10/22 10:25:03;;;;;;;1.75;0.30;;;15.40;99.90;;;;;;5072963;28;20040;-75
2022/10/22 10:27:46;;;;;;;3.08;0.30;;;15.50;99.90;;;;;;5074351;28;20063;-75
2022/10/22 10:30:16;;;;;;;7.53;0.50;;;15.40;99.90;;;;;;5074955;28;20119;-75
2022/10/22 10:33:06;;;;;;;3.92;0.30;;;15.40;99.90;;;;;;5058371;28;20067;-75
2022/10/22 10:36:08;;;;;;;2.40;0.30;;;15.30;99.90;;;;;;5059939;28;20043;-75
2022/10/22 10:38:55;;;;;;;1.80;0.30;;;15.30;99.90;;;;;;5042081;28;20492;-75
2022/10/22 10:41:47;;;;;;;1.95;0.40;;;15.30;99.90;;;;;;5056108;28;20477;-75
2022/10/22 10:44:38;;;;;;;2.33;0.30;;;15.50;99.90;;;;;;5056786;28;20041;-77
2022/10/22 10:47:11;;;;;;;2.28;0.45;;;15.70;99.90;;;;;;5075715;28;20062;-77
2022/10/22 10:49:37;;;;;;;2.45;0.30;;;15.90;99.90;;;;;;5080093;28;20506;-75
2022/10/22 10:52:30;;;;;;;3.50;0.30;;;15.90;99.90;;;;;;5055312;28;20020;-75
2022/10/22 10:55:33;;;;;;;2.90;0.40;;;15.90;99.90;;;;;;5068570;28;20472;-75
2022/10/22 10:58:28;;;;;;;4.35;0.45;;;15.70;99.90;;;;;;5075193;28;20265;-75
2022/10/22 11:01:15;;;;;;;3.83;0.40;;;15.80;99.90;;;;;;5077363;28;20060;-77
2022/10/22 11:04:08;;;;;;;1.90;0.30;;;15.80;99.90;;;;;;5078347;28;20081;-78
2022/10/22 11:06:37;;;;;;;1.50;0.30;;;15.70;99.90;;;;;;5078652;28;20040;-75
2022/10/22 11:09:17;;;;;;;3.55;0.40;;;15.90;99.90;;;;;;5061182;28;20565;-75
2022/10/22 11:11:49;;;;;;;5.07;0.50;;;15.90;99.90;;;;;;5040645;28;20046;-80
2022/10/22 11:14:31;;;;;;;2.42;0.40;;;16.00;99.90;;;;;;5057650;28;20028;-75
2022/10/22 11:17:12;;;;;;;3.65;0.30;;;16.10;99.90;;;;;;5077860;28;20376;-83
2022/10/22 11:19:51;;;;;;;2.03;0.50;;;16.40;99.90;;;;;;5060796;28;20047;-76
2022/10/22 11:22:26;;;;;;;2.47;0.32;;;16.60;99.90;;;;;;5076954;28;20024;-76
2022/10/22 11:25:12;;;;;;;4.05;0.50;;;16.70;99.90;;;;;;5079799;28;20315;-78
2022/10/22 11:27:49;;;;;;;3.00;0.40;;;17.00;99.90;;;;;;5077331;28;20032;-76
2022/10/22 11:30:18;;;;;;;3.88;0.30;;;17.10;99.90;;;;;;5058344;28;20052;-75
2022/10/22 11:32:48;;;;;;;2.83;0.30;;;17.20;99.90;;;;;;5061352;28;20024;-75
2022/10/22 11:35:20;;;;;;;2.10;0.40;;;17.30;99.90;;;;;;5041846;28;20064;-75
2022/10/22 11:37:46;;;;;;;2.58;0.57;;;17.40;99.90;;;;;;5059709;28;20027;-83
2022/10/22 11:40:20;;;;;;;3.45;0.47;;;17.50;99.90;;;;;;5076676;28;20043;-79
2022/10/22 11:42:51;;;;;;;2.75;0.40;;;17.50;99.90;;;;;;5054159;28;20257;-77
2022/10/22 11:45:16;;;;;;;3.70;0.50;;;17.60;99.90;;;;;;5076284;28;20055;-75
2022/10/22 11:47:57;;;;;;;4.47;0.60;;;17.50;99.90;;;;;;5065845;28;20028;-75
2022/10/22 11:50:51;;;;;;;4.13;0.50;;;17.60;99.90;;;;;;5057565;28;20036;-75
2022/10/22 11:53:29;;;;;;;3.03;0.70;;;17.50;99.90;;;;;;5074833;28;20651;-79
2022/10/22 11:56:20;;;;;;;3.53;0.70;;;17.60;99.90;;;;;;5075501;28;20080;-75
2022/10/22 11:58:47;;;;;;;4.47;0.80;;;17.40;99.90;;;;;;5059112;28;20384;-82
2022/10/22 12:01:12;;;;;;;7.85;0.65;;;17.30;99.90;;;;;;5077388;28;22619;-76
2022/10/22 12:03:42;;;;;;;6.38;0.88;;;17.20;99.90;;;;;;5041294;28;20415;-78
2022/10/22 12:06:11;;;;;;;5.95;0.70;;;17.10;99.90;;;;;;5076270;28;20066;-74
2022/10/22 12:08:51;;;;;;;6.07;0.77;;;17.00;99.90;;;;;;5040382;28;20484;-79
2022/10/22 12:11:46;;;;;;;6.32;0.47;;;17.10;99.90;;;;;;5074728;28;20039;-74
2022/10/22 12:14:28;;;;;;;5.70;0.70;;;17.30;99.90;;;;;;5040647;28;20476;-77
2022/10/22 12:17:06;;;;;;;5.68;0.60;;;17.20;99.90;;;;;;5076751;28;20040;-76
2022/10/22 12:19:56;;;;;;;5.90;0.47;;;17.20;99.90;;;;;;5060552;28;20024;-80
2022/10/22 12:22:27;;;;;;;6.40;0.50;;;17.10;99.90;;;;;;5053003;28;20384;-74
2022/10/22 12:24:56;;;;;;;5.57;0.63;;;17.10;99.90;;;;;;5057555;28;20035;-75
2022/10/22 12:27:23;;;;;;;3.85;0.47;;;17.20;99.90;;;;;;5074763;28;20025;-75
2022/10/22 12:29:57;;;;;;;5.38;0.50;;;17.50;99.90;;;;;;5065867;28;20032;-76
2022/10/22 12:32:33;;;;;;;6.38;0.60;;;17.70;99.90;;;;;;5075892;28;20448;-81
2022/10/22 12:35:04;;;;;;;6.43;0.55;;;17.70;99.90;;;;;;5069664;28;20035;-81
2022/10/22 12:37:30;;;;;;;9.35;1.67;;;17.80;99.90;;;;;;5045428;28;20039;-75
2022/10/22 12:39:55;;;;;;;3.55;0.40;;;17.90;99.90;;;;;;5064708;28;20028;-74
2022/10/22 12:42:22;;;;;;;3.10;0.70;;;17.80;99.90;;;;;;5063882;28;20028;-75
2022/10/22 12:44:54;;;;;;;3.38;0.50;;;17.60;99.90;;;;;;5055176;28;20053;-79
2022/10/22 12:47:20;;;;;;;1.45;0.50;;;17.40;99.90;;;;;;5073931;28;20119;-83
2022/10/22 12:49:48;;;;;;;2.90;0.40;;;17.30;99.90;;;;;;5055843;28;20127;-74
2022/10/22 12:52:21;;;;;;;6.63;0.90;;;17.10;99.90;;;;;;5076978;28;20075;-74
2022/10/22 12:54:51;;;;;;;3.33;0.50;;;16.90;99.90;;;;;;5076769;28;20437;-74
2022/10/22 12:57:19;;;;;;;6.00;0.70;;;16.80;99.90;;;;;;5057299;28;20062;-75
2022/10/22 12:59:47;;;;;;;4.15;0.50;;;16.70;99.90;;;;;;5072629;28;20044;-79
2022/10/22 13:02:23;;;;;;;2.88;0.40;;;16.70;99.90;;;;;;5070927;28;20052;-79
2022/10/22 13:05:26;;;;;;;2.70;0.30;;;16.70;99.90;;;;;;5072927;28;20465;-76
2022/10/22 13:08:04;;;;;;;4.28;0.68;;;16.70;99.90;;;;;;5074197;28;20392;-75
2022/10/22 13:10:33;;;;;;;4.63;0.60;;;16.70;99.90;;;;;;5059293;28;20103;-75